Terminal Aerodrome Forecast
Issued by NWS

Home | Current Version | Previous Version | Text Only | Print | Product List | Glossary On
Versions: 1 2 3 4 5 6 7 8 9 10 11 12 13 14 15 16 17 18 19 20 21 22 23 24 25 26 27 28 29 30 31 32 33 34
000
FTUS41 KILN 292300
TAFLCK
TAF
KLCK 292335Z 3000/3024 14006KT P6SM VCSH BKN025 OVC045
     FM300300 VRB04KT P6SM BKN015
     FM300800 23005KT 4SM BR SCT005 BKN011
     FM301400 23010KT P6SM SCT011 BKN025
     FM301800 25012G20KT P6SM VCSH BKN035=

USA.gov is the U.S. government's official web portal to all federal, state and local government web resources and services.